Time;durP1;ratioP1;P1;durP2;ratioP2;P2;SDS_P1;SDS_P2;PMS_P1;PMS_P2;Temp;Humidity;BMP_temperature;BMP_pressure;BME280_temperature;BME280_humidity;BME280_pressure;Samples;Min_cycle;Max_cycle;Signal;HPM_P1;HPM_P2
2023/01/26 00:01:46;;;;;;;106.25;40.20;;;;;;;;;;5011557;28;20055;-81
2023/01/26 00:04:12;;;;;;;98.15;39.60;;;;;;;;;;4986909;28;20034;-80
2023/01/26 00:06:38;;;;;;;112.97;40.35;;;;;;;;;;4994052;28;20510;-81
2023/01/26 00:09:05;;;;;;;110.80;41.80;;;;;;;;;;4997340;28;20057;-81
2023/01/26 00:11:31;;;;;;;115.07;42.15;;;;;;;;;;4993596;28;20136;-81
2023/01/26 00:13:58;;;;;;;105.68;38.83;;;;;;;;;;4987340;28;20498;-81
2023/01/26 00:16:24;;;;;;;110.78;41.38;;;;;;;;;;4991489;28;20057;-82
2023/01/26 00:18:50;;;;;;;107.05;41.05;;;;;;;;;;5009033;28;20039;-81
2023/01/26 00:21:21;;;;;;;108.68;40.72;;;;;;;;;;4993312;28;20483;-81
2023/01/26 00:23:47;;;;;;;96.57;39.47;;;;;;;;;;4985144;28;20042;-81
2023/01/26 00:26:14;;;;;;;92.60;36.45;;;;;;;;;;5019630;28;20572;-82
2023/01/26 00:28:40;;;;;;;106.32;39.70;;;;;;;;;;4989562;28;20054;-81
2023/01/26 00:31:08;;;;;;;101.85;39.47;;;;;;;;;;4990118;28;20054;-82
2023/01/26 00:33:34;;;;;;;99.75;37.67;;;;;;;;;;5007051;28;20054;-82
2023/01/26 00:36:00;;;;;;;87.05;35.25;;;;;;;;;;4996088;28;20038;-82
2023/01/26 00:38:26;;;;;;;102.63;38.58;;;;;;;;;;5008908;28;20105;-81
2023/01/26 00:40:52;;;;;;;99.55;38.78;;;;;;;;;;4992699;28;20065;-82
2023/01/26 00:43:18;;;;;;;92.50;37.25;;;;;;;;;;4998439;28;20065;-81
2023/01/26 00:45:44;;;;;;;101.32;37.88;;;;;;;;;;4983468;28;20047;-82
2023/01/26 00:48:10;;;;;;;100.22;37.83;;;;;;;;;;4994887;28;20050;-81
2023/01/26 00:50:39;;;;;;;103.30;37.83;;;;;;;;;;4979355;28;20043;-82
2023/01/26 00:53:05;;;;;;;98.75;36.90;;;;;;;;;;4982201;28;20100;-82
2023/01/26 00:55:31;;;;;;;96.95;38.00;;;;;;;;;;4993050;28;20129;-81
2023/01/26 00:58:01;;;;;;;100.72;37.67;;;;;;;;;;4992605;28;20086;-82
2023/01/26 01:00:27;;;;;;;99.40;36.95;;;;;;;;;;4986124;28;20052;-81
2023/01/26 01:02:55;;;;;;;100.60;38.13;;;;;;;;;;5017907;28;20050;-81
2023/01/26 01:05:21;;;;;;;98.20;37.95;;;;;;;;;;5021504;28;20058;-81
2023/01/26 01:07:53;;;;;;;96.30;38.88;;;;;;;;;;4990871;28;20046;-82
2023/01/26 01:10:19;;;;;;;98.93;38.17;;;;;;;;;;4991145;28;20050;-81
2023/01/26 01:12:45;;;;;;;102.13;38.33;;;;;;;;;;4982453;28;20038;-81
2023/01/26 01:15:11;;;;;;;107.07;39.15;;;;;;;;;;4987766;28;20140;-81
2023/01/26 01:17:37;;;;;;;99.90;39.17;;;;;;;;;;4983903;28;20410;-81
2023/01/26 01:20:04;;;;;;;116.88;39.58;;;;;;;;;;4995512;28;20141;-82
2023/01/26 01:22:31;;;;;;;96.20;37.83;;;;;;;;;;4990749;28;20054;-81
2023/01/26 01:24:57;;;;;;;97.32;37.63;;;;;;;;;;4989216;28;20097;-82
2023/01/26 01:27:23;;;;;;;93.03;37.03;;;;;;;;;;4993376;28;20046;-82
2023/01/26 01:29:49;;;;;;;114.70;40.40;;;;;;;;;;4989570;28;20510;-81
2023/01/26 01:32:16;;;;;;;108.45;39.15;;;;;;;;;;4987626;28;20105;-81
2023/01/26 01:34:42;;;;;;;98.13;39.40;;;;;;;;;;5006274;28;20105;-81
2023/01/26 01:37:08;;;;;;;94.30;37.53;;;;;;;;;;5001754;28;20030;-82
2023/01/26 01:39:33;;;;;;;92.18;39.33;;;;;;;;;;5003052;28;20052;-82
2023/01/26 01:42:00;;;;;;;101.13;39.22;;;;;;;;;;4992170;28;20046;-81
2023/01/26 01:44:26;;;;;;;112.72;39.13;;;;;;;;;;4988647;28;20084;-81
2023/01/26 01:46:58;;;;;;;91.35;37.75;;;;;;;;;;4988214;28;20583;-81
2023/01/26 01:49:47;;;;;;;99.13;37.13;;;;;;;;;;5003171;28;20557;-82
2023/01/26 01:52:26;;;;;;;95.00;36.45;;;;;;;;;;4987566;28;20517;-82
2023/01/26 01:55:12;;;;;;;104.05;37.70;;;;;;;;;;4993157;28;20042;-81
2023/01/26 01:57:53;;;;;;;84.90;34.92;;;;;;;;;;5029439;28;20401;-82
2023/01/26 02:00:22;;;;;;;89.70;35.53;;;;;;;;;;5002143;28;20101;-82
2023/01/26 02:03:27;;;;;;;99.38;36.45;;;;;;;;;;4978429;28;20097;-81
2023/01/26 02:06:04;;;;;;;88.47;34.47;;;;;;;;;;4990602;28;20121;-81
2023/01/26 02:08:33;;;;;;;97.43;35.38;;;;;;;;;;4992458;28;20046;-82
2023/01/26 02:11:01;;;;;;;101.20;39.42;;;;;;;;;;4978360;28;20046;-82
2023/01/26 02:13:27;;;;;;;98.57;36.05;;;;;;;;;;4990585;28;20056;-82
2023/01/26 02:15:54;;;;;;;114.28;38.80;;;;;;;;;;4989255;28;20045;-82
2023/01/26 02:18:20;;;;;;;82.70;33.30;;;;;;;;;;4991139;28;20084;-82
2023/01/26 02:20:49;;;;;;;89.43;34.95;;;;;;;;;;4979730;28;20543;-82
2023/01/26 02:23:34;;;;;;;95.18;35.22;;;;;;;;;;5021627;28;20490;-82
2023/01/26 02:26:11;;;;;;;75.75;32.13;;;;;;;;;;5002605;28;20061;-82
2023/01/26 02:28:38;;;;;;;77.43;32.00;;;;;;;;;;4993811;28;20101;-82
2023/01/26 02:31:05;;;;;;;79.32;30.92;;;;;;;;;;4993761;28;20062;-82
2023/01/26 02:33:32;;;;;;;83.32;29.95;;;;;;;;;;5010085;28;20056;-81
2023/01/26 02:35:58;;;;;;;69.90;27.15;;;;;;;;;;5002125;28;20053;-82
2023/01/26 02:38:26;;;;;;;67.45;24.42;;;;;;;;;;4977998;28;20414;-82
2023/01/26 02:40:57;;;;;;;63.05;22.85;;;;;;;;;;5007433;28;20042;-81
2023/01/26 02:43:24;;;;;;;57.38;22.17;;;;;;;;;;5004807;28;20078;-82
2023/01/26 02:45:50;;;;;;;57.58;20.90;;;;;;;;;;4988001;28;20043;-82
2023/01/26 02:49:45;;;;;;;58.80;18.88;;;;;;;;;;4989635;28;20046;-82
2023/01/26 02:51:03;;;;;;;47.47;18.10;;;;;;;;;;4979521;28;20050;-82
2023/01/26 02:53:29;;;;;;;42.92;16.65;;;;;;;;;;4989372;28;20129;-82
2023/01/26 02:55:55;;;;;;;43.42;15.50;;;;;;;;;;5016556;28;20049;-82
2023/01/26 02:58:21;;;;;;;37.00;12.13;;;;;;;;;;4991522;28;20483;-82
2023/01/26 03:00:47;;;;;;;35.28;11.32;;;;;;;;;;4994649;28;20077;-82
2023/01/26 03:03:14;;;;;;;31.50;9.52;;;;;;;;;;4984486;28;20134;-81
2023/01/26 03:05:41;;;;;;;26.67;8.70;;;;;;;;;;5004200;28;20043;-81
2023/01/26 03:08:07;;;;;;;31.88;7.40;;;;;;;;;;5007932;28;20047;-82
2023/01/26 03:10:34;;;;;;;32.75;7.63;;;;;;;;;;4989178;28;20038;-81
2023/01/26 03:13:00;;;;;;;31.02;9.35;;;;;;;;;;4985677;28;20038;-82
2023/01/26 03:29:12;;;;;;;33.90;7.40;;;;;;;;;;4991689;28;20053;-81
2023/01/26 03:31:38;;;;;;;22.98;5.90;;;;;;;;;;4996771;28;20050;-81
2023/01/26 03:34:04;;;;;;;27.77;7.00;;;;;;;;;;5004111;28;20038;-81
2023/01/26 03:36:30;;;;;;;35.30;6.53;;;;;;;;;;4995730;28;20047;-81
2023/01/26 03:38:56;;;;;;;33.35;6.13;;;;;;;;;;5002509;28;20045;-82
2023/01/26 03:57:52;;;;;;;26.98;4.80;;;;;;;;;;4999025;28;20094;-82
2023/01/26 04:00:20;;;;;;;23.38;5.22;;;;;;;;;;4999204;28;20418;-81
2023/01/26 04:08:20;;;;;;;27.63;5.57;;;;;;;;;;4993214;28;20047;-81
2023/01/26 04:10:46;;;;;;;27.80;6.40;;;;;;;;;;5034122;28;20057;-81
2023/01/26 04:21:31;;;;;;;24.10;4.57;;;;;;;;;;5004086;28;20050;-81
2023/01/26 04:23:57;;;;;;;32.92;4.90;;;;;;;;;;4999557;28;20058;-81
2023/01/26 04:26:33;;;;;;;19.17;4.55;;;;;;;;;;5002250;28;20520;-82
2023/01/26 04:29:17;;;;;;;29.50;4.95;;;;;;;;;;5010750;28;20066;-82
2023/01/26 04:31:43;;;;;;;31.35;5.40;;;;;;;;;;4998947;28;20046;-80
2023/01/26 04:34:11;;;;;;;33.85;5.05;;;;;;;;;;4993964;28;20034;-82
2023/01/26 04:36:37;;;;;;;31.17;4.90;;;;;;;;;;4983793;28;20046;-82
2023/01/26 04:39:03;;;;;;;32.45;5.15;;;;;;;;;;4992726;28;20375;-82
2023/01/26 04:41:30;;;;;;;31.30;5.45;;;;;;;;;;5027320;28;20045;-82
2023/01/26 04:43:56;;;;;;;30.52;5.25;;;;;;;;;;5003387;28;20042;-82
2023/01/26 04:46:22;;;;;;;31.25;5.95;;;;;;;;;;5002630;28;20038;-82
2023/01/26 04:48:48;;;;;;;25.58;5.25;;;;;;;;;;4990227;28;20046;-82
2023/01/26 04:51:16;;;;;;;31.30;5.53;;;;;;;;;;5008042;28;20046;-82
2023/01/26 04:53:42;;;;;;;38.25;5.60;;;;;;;;;;4993277;28;20046;-81
2023/01/26 04:56:13;;;;;;;22.42;5.07;;;;;;;;;;5013024;28;20045;-82
2023/01/26 04:58:40;;;;;;;32.88;6.05;;;;;;;;;;4998202;28;20056;-82
2023/01/26 05:01:05;;;;;;;29.23;6.10;;;;;;;;;;4988733;28;20041;-81
2023/01/26 05:03:32;;;;;;;28.65;5.30;;;;;;;;;;4987870;28;20700;-81
2023/01/26 05:05:58;;;;;;;26.45;5.93;;;;;;;;;;5019390;28;20482;-81
2023/01/26 05:08:24;;;;;;;25.73;5.75;;;;;;;;;;4987603;28;20105;-81
2023/01/26 05:10:51;;;;;;;30.63;5.05;;;;;;;;;;4980278;28;20146;-81
2023/01/26 05:13:17;;;;;;;28.45;5.55;;;;;;;;;;4995094;28;20525;-81
2023/01/26 05:15:43;;;;;;;24.75;5.57;;;;;;;;;;4995840;28;20621;-82
2023/01/26 05:18:09;;;;;;;30.08;5.80;;;;;;;;;;4991241;28;20113;-80
2023/01/26 05:20:35;;;;;;;29.23;5.55;;;;;;;;;;5030659;28;20113;-82
2023/01/26 05:23:07;;;;;;;37.55;6.38;;;;;;;;;;4992359;28;20050;-82
2023/01/26 05:25:33;;;;;;;37.78;6.82;;;;;;;;;;4991809;28;20045;-81
2023/01/26 05:27:59;;;;;;;30.30;5.45;;;;;;;;;;5018181;28;20042;-82
2023/01/26 05:30:25;;;;;;;34.08;5.25;;;;;;;;;;4986199;28;20156;-82
2023/01/26 05:32:51;;;;;;;38.22;5.93;;;;;;;;;;5008227;28;20769;-82
2023/01/26 05:35:17;;;;;;;32.22;6.05;;;;;;;;;;4992248;28;20042;-81
2023/01/26 05:37:44;;;;;;;28.63;6.15;;;;;;;;;;4984431;28;20122;-80
2023/01/26 05:40:12;;;;;;;29.67;5.60;;;;;;;;;;4998660;28;20050;-81
2023/01/26 05:42:38;;;;;;;23.73;4.90;;;;;;;;;;4985974;28;20054;-81
2023/01/26 05:45:04;;;;;;;36.20;6.20;;;;;;;;;;4990528;28;20046;-82
2023/01/26 05:47:31;;;;;;;25.83;5.45;;;;;;;;;;4999668;28;20048;-82
2023/01/26 05:49:57;;;;;;;35.75;6.03;;;;;;;;;;4985687;28;20117;-82
2023/01/26 05:52:23;;;;;;;27.60;6.85;;;;;;;;;;4991590;28;20177;-82
2023/01/26 05:54:51;;;;;;;29.38;5.07;;;;;;;;;;4992728;28;20497;-81
2023/01/26 05:57:17;;;;;;;24.63;5.38;;;;;;;;;;4989714;28;20049;-81
2023/01/26 05:59:43;;;;;;;30.13;5.40;;;;;;;;;;4983540;28;20042;-82
2023/01/26 06:02:19;;;;;;;30.00;5.45;;;;;;;;;;5019382;28;20090;-82
2023/01/26 06:04:45;;;;;;;28.83;5.18;;;;;;;;;;4990261;28;20121;-81
2023/01/26 06:07:14;;;;;;;23.10;6.25;;;;;;;;;;4991833;28;20206;-81
2023/01/26 06:09:44;;;;;;;26.05;5.25;;;;;;;;;;4983845;28;20038;-82
2023/01/26 06:12:14;;;;;;;24.10;5.25;;;;;;;;;;4995175;28;20060;-82
2023/01/26 06:14:40;;;;;;;25.35;4.93;;;;;;;;;;4990311;28;20053;-81
2023/01/26 06:17:06;;;;;;;32.30;4.97;;;;;;;;;;4988944;28;20126;-82
2023/01/26 06:19:32;;;;;;;28.20;5.53;;;;;;;;;;5010490;28;20129;-81
2023/01/26 06:21:58;;;;;;;25.02;4.93;;;;;;;;;;4999508;28;20129;-82
2023/01/26 06:24:24;;;;;;;32.53;5.95;;;;;;;;;;4986120;28;20055;-81
2023/01/26 06:26:50;;;;;;;28.67;5.10;;;;;;;;;;4986168;28;20045;-82
2023/01/26 06:29:16;;;;;;;28.55;4.88;;;;;;;;;;5008598;28;20417;-82
2023/01/26 06:31:42;;;;;;;18.38;4.18;;;;;;;;;;4974264;28;20516;-82
2023/01/26 06:34:09;;;;;;;26.88;5.63;;;;;;;;;;5018413;28;20054;-82
2023/01/26 06:36:35;;;;;;;25.38;5.22;;;;;;;;;;4991973;28;20412;-82
2023/01/26 06:39:01;;;;;;;26.25;5.60;;;;;;;;;;4983851;28;20054;-82
2023/01/26 06:41:27;;;;;;;24.50;5.05;;;;;;;;;;4986873;28;20173;-82
2023/01/26 06:43:53;;;;;;;24.90;4.53;;;;;;;;;;4995917;28;20113;-82
2023/01/26 06:46:20;;;;;;;22.63;5.00;;;;;;;;;;4995399;28;20113;-82
2023/01/26 06:48:46;;;;;;;23.15;5.00;;;;;;;;;;4987131;28;20051;-82
2023/01/26 06:51:15;;;;;;;27.45;5.03;;;;;;;;;;4986577;28;20402;-81
2023/01/26 06:53:57;;;;;;;28.70;5.85;;;;;;;;;;4994243;28;21044;-81
2023/01/26 06:56:23;;;;;;;27.58;4.93;;;;;;;;;;4993548;28;20050;-82
2023/01/26 06:58:50;;;;;;;24.73;5.57;;;;;;;;;;4988924;28;20065;-82
2023/01/26 07:01:17;;;;;;;21.08;5.15;;;;;;;;;;4994609;28;20089;-80
2023/01/26 07:03:43;;;;;;;16.55;4.65;;;;;;;;;;5021241;28;20050;-80
2023/01/26 07:06:12;;;;;;;21.85;5.50;;;;;;;;;;5015612;28;20105;-80
2023/01/26 07:08:38;;;;;;;29.95;5.60;;;;;;;;;;4985305;28;20514;-80
2023/01/26 07:11:04;;;;;;;26.33;5.30;;;;;;;;;;5015472;28;20418;-81
2023/01/26 07:13:30;;;;;;;23.75;4.75;;;;;;;;;;5000798;28;20054;-81
2023/01/26 07:16:03;;;;;;;24.73;4.72;;;;;;;;;;4996243;28;20065;-81
2023/01/26 07:18:30;;;;;;;23.50;6.35;;;;;;;;;;4983447;28;20042;-82
2023/01/26 07:21:00;;;;;;;29.88;5.43;;;;;;;;;;4996162;28;20494;-82
2023/01/26 07:23:26;;;;;;;25.45;5.03;;;;;;;;;;4989994;28;20050;-82
2023/01/26 07:25:52;;;;;;;24.50;4.90;;;;;;;;;;4982033;28;20057;-82
2023/01/26 07:28:18;;;;;;;22.23;5.20;;;;;;;;;;4982612;28;20050;-83
2023/01/26 07:30:44;;;;;;;24.27;5.65;;;;;;;;;;5019074;28;20123;-81
2023/01/26 07:33:10;;;;;;;24.23;5.10;;;;;;;;;;4990378;28;20034;-80
2023/01/26 07:35:36;;;;;;;26.83;5.60;;;;;;;;;;4996049;28;20046;-82
2023/01/26 07:38:05;;;;;;;29.83;5.20;;;;;;;;;;4988965;28;20039;-82
2023/01/26 07:40:31;;;;;;;24.98;5.70;;;;;;;;;;4988689;28;20108;-82
2023/01/26 07:42:59;;;;;;;24.27;5.43;;;;;;;;;;4979596;28;20074;-82
2023/01/26 07:45:25;;;;;;;26.30;4.80;;;;;;;;;;4992464;28;20077;-82
2023/01/26 07:47:53;;;;;;;28.67;4.93;;;;;;;;;;4989070;28;20045;-82
2023/01/26 07:50:20;;;;;;;24.60;5.25;;;;;;;;;;4992014;28;20042;-82
2023/01/26 07:52:46;;;;;;;26.38;5.63;;;;;;;;;;4995162;28;20035;-82
2023/01/26 07:55:13;;;;;;;28.17;5.72;;;;;;;;;;5020555;28;20057;-82
2023/01/26 07:57:39;;;;;;;25.08;5.20;;;;;;;;;;5011630;28;20042;-82
2023/01/26 08:00:06;;;;;;;23.08;5.07;;;;;;;;;;4992906;28;20049;-81
2023/01/26 08:02:32;;;;;;;16.98;4.82;;;;;;;;;;4994329;28;20132;-82
2023/01/26 08:04:59;;;;;;;19.98;5.07;;;;;;;;;;4991324;28;20034;-82
2023/01/26 08:07:25;;;;;;;19.73;5.13;;;;;;;;;;4993227;28;20063;-82
2023/01/26 08:09:51;;;;;;;25.23;5.00;;;;;;;;;;4993424;28;20089;-83
2023/01/26 08:12:17;;;;;;;20.92;4.78;;;;;;;;;;4987142;28;20050;-82
2023/01/26 08:14:43;;;;;;;20.58;4.38;;;;;;;;;;4996191;28;20117;-82
2023/01/26 08:17:09;;;;;;;25.67;6.20;;;;;;;;;;4999037;28;20133;-82
2023/01/26 08:19:35;;;;;;;32.33;6.68;;;;;;;;;;4993397;28;20374;-83
2023/01/26 08:22:01;;;;;;;24.95;6.72;;;;;;;;;;5018574;28;20049;-83
2023/01/26 08:24:27;;;;;;;28.90;6.57;;;;;;;;;;4989396;28;20050;-82
2023/01/26 08:26:53;;;;;;;31.52;6.47;;;;;;;;;;5006287;28;20082;-81
2023/01/26 08:29:19;;;;;;;29.80;6.85;;;;;;;;;;4991074;28;20179;-82
2023/01/26 08:31:46;;;;;;;30.77;6.55;;;;;;;;;;4995648;28;20049;-82
2023/01/26 08:34:12;;;;;;;29.70;6.68;;;;;;;;;;4992815;28;20453;-82
2023/01/26 08:36:38;;;;;;;25.70;6.07;;;;;;;;;;4986735;28;20058;-82
2023/01/26 08:39:05;;;;;;;29.10;6.07;;;;;;;;;;4994290;28;20070;-82
2023/01/26 08:41:32;;;;;;;26.27;5.97;;;;;;;;;;5003163;28;20056;-82
2023/01/26 08:43:58;;;;;;;39.20;7.38;;;;;;;;;;4996786;28;20487;-82
2023/01/26 08:46:27;;;;;;;30.83;6.43;;;;;;;;;;4991909;28;20043;-82
2023/01/26 08:48:53;;;;;;;21.85;5.90;;;;;;;;;;4994884;28;20042;-82
2023/01/26 08:51:19;;;;;;;28.30;6.18;;;;;;;;;;4991843;28;20054;-82
2023/01/26 08:53:45;;;;;;;27.33;5.35;;;;;;;;;;4997230;28;20474;-82
2023/01/26 08:56:12;;;;;;;34.00;5.25;;;;;;;;;;4993060;28;20507;-82
2023/01/26 08:58:38;;;;;;;26.20;5.13;;;;;;;;;;4994364;28;20125;-82
2023/01/26 09:01:08;;;;;;;40.28;7.88;;;;;;;;;;4993731;28;20042;-82
2023/01/26 09:03:34;;;;;;;26.58;6.80;;;;;;;;;;4992923;28;20042;-82
2023/01/26 09:06:00;;;;;;;28.30;6.07;;;;;;;;;;4985820;28;20046;-82
2023/01/26 09:08:27;;;;;;;34.90;6.28;;;;;;;;;;4995235;28;20165;-82
2023/01/26 09:10:53;;;;;;;17.85;5.43;;;;;;;;;;4988725;28;20038;-83
2023/01/26 09:13:19;;;;;;;24.55;5.85;;;;;;;;;;4989922;28;20038;-83
2023/01/26 09:15:45;;;;;;;28.20;6.03;;;;;;;;;;4988273;28;20047;-82
2023/01/26 09:18:11;;;;;;;23.55;5.60;;;;;;;;;;5008596;28;20435;-82
2023/01/26 09:20:37;;;;;;;29.90;5.88;;;;;;;;;;4993666;28;20185;-84
2023/01/26 09:23:03;;;;;;;24.50;5.22;;;;;;;;;;4988324;28;20047;-82
2023/01/26 09:25:29;;;;;;;31.90;5.93;;;;;;;;;;4990721;28;20072;-83
2023/01/26 09:27:56;;;;;;;25.10;5.57;;;;;;;;;;4994778;28;20045;-82
2023/01/26 09:30:23;;;;;;;36.78;6.38;;;;;;;;;;4990739;28;20054;-82
2023/01/26 09:32:49;;;;;;;27.17;5.93;;;;;;;;;;5015797;28;20145;-83
2023/01/26 09:35:15;;;;;;;27.83;6.72;;;;;;;;;;5021633;28;20189;-82
2023/01/26 09:37:45;;;;;;;27.13;5.70;;;;;;;;;;4991906;28;20050;-82
2023/01/26 09:40:31;;;;;;;23.33;5.72;;;;;;;;;;4989239;28;20054;-83
2023/01/26 09:43:04;;;;;;;24.67;5.35;;;;;;;;;;4988641;28;20042;-83
2023/01/26 09:45:34;;;;;;;28.17;6.72;;;;;;;;;;4996297;28;20060;-83
2023/01/26 09:48:11;;;;;;;25.02;6.32;;;;;;;;;;5021117;28;20162;-83
2023/01/26 09:50:43;;;;;;;28.90;5.95;;;;;;;;;;4993458;28;20050;-83
2023/01/26 09:53:15;;;;;;;23.55;6.63;;;;;;;;;;4991919;28;20042;-82
2023/01/26 09:55:43;;;;;;;21.25;5.45;;;;;;;;;;5013479;28;20472;-83
2023/01/26 09:58:19;;;;;;;37.25;5.43;;;;;;;;;;5016807;28;20521;-82
2023/01/26 10:00:46;;;;;;;17.52;4.78;;;;;;;;;;4995721;28;20038;-83
2023/01/26 10:03:18;;;;;;;22.50;4.47;;;;;;;;;;5020674;28;20057;-82
2023/01/26 10:05:50;;;;;;;19.80;4.55;;;;;;;;;;5004078;28;20049;-82
2023/01/26 10:08:18;;;;;;;22.25;4.28;;;;;;;;;;5020542;28;20042;-83
2023/01/26 10:10:47;;;;;;;22.35;4.53;;;;;;;;;;4987755;28;20051;-82
2023/01/26 10:13:14;;;;;;;18.63;4.13;;;;;;;;;;5018671;28;20129;-82
2023/01/26 10:15:46;;;;;;;21.65;5.05;;;;;;;;;;4980323;28;20074;-83
2023/01/26 10:18:25;;;;;;;20.50;4.57;;;;;;;;;;4987318;28;20080;-82
2023/01/26 10:20:53;;;;;;;22.05;4.97;;;;;;;;;;5021864;28;20054;-83
2023/01/26 10:23:22;;;;;;;24.90;4.72;;;;;;;;;;4989966;28;20043;-82
2023/01/26 10:25:50;;;;;;;20.40;4.10;;;;;;;;;;4973301;28;20042;-83
2023/01/26 10:28:25;;;;;;;28.73;5.68;;;;;;;;;;4986612;28;20043;-82
2023/01/26 10:30:52;;;;;;;26.90;5.22;;;;;;;;;;4990275;28;20050;-83
2023/01/26 10:33:25;;;;;;;23.95;5.20;;;;;;;;;;4996151;28;20378;-83
2023/01/26 10:35:51;;;;;;;;;;;;;;;;;;4987095;28;20406;-83
2023/01/26 10:38:33;;;;;;;26.25;4.97;;;;;;;;;;4987534;28;19929;-83
2023/01/26 10:41:03;;;;;;;17.75;4.15;;;;;;;;;;4986533;28;20042;-83
2023/01/26 10:43:31;;;;;;;23.58;3.97;;;;;;;;;;4991230;28;20050;-83
2023/01/26 10:45:57;;;;;;;16.77;3.95;;;;;;;;;;4995471;28;20048;-83
2023/01/26 10:48:26;;;;;;;16.55;3.45;;;;;;;;;;5019557;28;20403;-83
2023/01/26 10:50:53;;;;;;;14.60;3.65;;;;;;;;;;4989750;28;20084;-83
2023/01/26 10:53:28;;;;;;;19.02;3.30;;;;;;;;;;4989100;28;20398;-83
2023/01/26 10:55:58;;;;;;;14.38;3.63;;;;;;;;;;4994415;28;20038;-82
2023/01/26 10:58:40;;;;;;;16.95;3.70;;;;;;;;;;4983038;28;20406;-83
2023/01/26 11:01:11;;;;;;;14.45;3.50;;;;;;;;;;4985786;28;20045;-83
2023/01/26 11:03:37;;;;;;;19.20;4.28;;;;;;;;;;5019143;28;20054;-82
2023/01/26 11:06:26;;;;;;;18.98;4.70;;;;;;;;;;4984422;28;20061;-82
2023/01/26 11:08:52;;;;;;;16.27;4.20;;;;;;;;;;4986677;28;20442;-83
2023/01/26 11:11:26;;;;;;;21.55;4.80;;;;;;;;;;4991735;28;20470;-82
2023/01/26 11:14:11;;;;;;;19.30;4.50;;;;;;;;;;4985025;28;20133;-83
2023/01/26 11:16:38;;;;;;;21.83;4.78;;;;;;;;;;4991114;28;20502;-82
2023/01/26 11:19:19;;;;;;;22.67;4.88;;;;;;;;;;4989357;28;20066;-83
2023/01/26 11:21:53;;;;;;;18.52;4.90;;;;;;;;;;4988668;28;20516;-82
2023/01/26 11:24:31;;;;;;;17.85;3.67;;;;;;;;;;4988401;28;20052;-83
2023/01/26 11:27:12;;;;;;;16.27;4.35;;;;;;;;;;4991439;28;20046;-83
2023/01/26 11:29:57;;;;;;;21.60;5.15;;;;;;;;;;4989201;28;20062;-83
2023/01/26 11:32:29;;;;;;;21.40;4.80;;;;;;;;;;4989034;28;20050;-82
2023/01/26 11:35:22;;;;;;;25.58;5.00;;;;;;;;;;4990410;28;20041;-81
2023/01/26 11:37:51;;;;;;;21.30;4.53;;;;;;;;;;4985361;28;20070;-81
2023/01/26 11:40:22;;;;;;;18.48;4.00;;;;;;;;;;5017082;28;20039;-81
2023/01/26 11:42:48;;;;;;;22.25;4.65;;;;;;;;;;4986831;28;20047;-81
2023/01/26 11:45:20;;;;;;;20.20;3.95;;;;;;;;;;4992578;28;20061;-81
2023/01/26 11:47:46;;;;;;;16.27;4.32;;;;;;;;;;5018552;28;20043;-82
2023/01/26 11:50:23;;;;;;;19.13;4.97;;;;;;;;;;4989381;28;20122;-80
2023/01/26 11:52:58;;;;;;;16.30;4.20;;;;;;;;;;4990284;28;20038;-81
2023/01/26 11:55:27;;;;;;;12.60;3.53;;;;;;;;;;4988597;28;20042;-81
2023/01/26 11:58:04;;;;;;;9.50;2.83;;;;;;;;;;4990132;28;20073;-81
2023/01/26 12:00:39;;;;;;;9.00;3.13;;;;;;;;;;4997679;28;20030;-81
2023/01/26 12:03:11;;;;;;;15.07;3.58;;;;;;;;;;5032808;28;20548;-81
2023/01/26 12:05:42;;;;;;;15.32;3.85;;;;;;;;;;5018301;28;20050;-81
2023/01/26 12:08:14;;;;;;;16.83;3.63;;;;;;;;;;4989435;28;20042;-80
2023/01/26 12:11:21;;;;;;;14.52;3.28;;;;;;;;;;4993139;28;20367;-81
2023/01/26 12:13:49;;;;;;;14.57;3.22;;;;;;;;;;4988087;28;20097;-81
2023/01/26 12:16:28;;;;;;;14.13;3.53;;;;;;;;;;4984263;28;20050;-81
2023/01/26 12:19:02;;;;;;;13.93;3.63;;;;;;;;;;4987527;28;20386;-81
2023/01/26 12:21:30;;;;;;;17.15;3.95;;;;;;;;;;4990168;28;20398;-80
2023/01/26 12:24:02;;;;;;;14.30;3.72;;;;;;;;;;5018255;28;20096;-80
2023/01/26 12:26:41;;;;;;;19.33;4.07;;;;;;;;;;5002463;28;20043;-81
2023/01/26 12:29:26;;;;;;;14.82;3.70;;;;;;;;;;5013798;28;20065;-80
2023/01/26 12:31:56;;;;;;;21.35;4.63;;;;;;;;;;4989776;28;20130;-80
2023/01/26 12:34:25;;;;;;;15.20;3.95;;;;;;;;;;4990470;28;20126;-80
2023/01/26 12:37:03;;;;;;;21.50;5.13;;;;;;;;;;4984454;28;20121;-82
2023/01/26 12:39:35;;;;;;;13.75;4.20;;;;;;;;;;4993293;28;20103;-83
2023/01/26 12:42:07;;;;;;;12.98;3.63;;;;;;;;;;4991710;28;20109;-82
2023/01/26 12:44:40;;;;;;;20.92;4.22;;;;;;;;;;4990149;28;20092;-82
2023/01/26 12:47:09;;;;;;;17.25;3.55;;;;;;;;;;5018408;28;20053;-82
2023/01/26 12:49:48;;;;;;;14.05;4.10;;;;;;;;;;4993274;28;20050;-82
2023/01/26 12:52:23;;;;;;;15.85;3.42;;;;;;;;;;5024693;28;20541;-82
2023/01/26 12:54:53;;;;;;;17.80;3.40;;;;;;;;;;5017606;28;20042;-82
2023/01/26 12:57:21;;;;;;;16.40;3.95;;;;;;;;;;5016269;28;20065;-82
2023/01/26 12:59:47;;;;;;;15.00;4.55;;;;;;;;;;4992728;28;20074;-83
2023/01/26 13:02:19;;;;;;;18.08;3.50;;;;;;;;;;5020180;28;20046;-82
2023/01/26 13:04:45;;;;;;;18.73;5.15;;;;;;;;;;4987568;28;20046;-82
2023/01/26 13:07:29;;;;;;;14.80;4.20;;;;;;;;;;4987511;28;20053;-82
2023/01/26 13:10:08;;;;;;;11.73;3.13;;;;;;;;;;5022484;28;20046;-83
2023/01/26 13:12:48;;;;;;;9.88;2.40;;;;;;;;;;5007227;28;20065;-82
2023/01/26 13:15:15;;;;;;;13.93;3.03;;;;;;;;;;4987724;28;20049;-82
2023/01/26 13:18:01;;;;;;;15.55;3.42;;;;;;;;;;5001339;28;20528;-83
2023/01/26 13:20:41;;;;;;;11.35;3.42;;;;;;;;;;4990169;28;20046;-82
2023/01/26 13:23:26;;;;;;;9.52;3.13;;;;;;;;;;4990535;28;20043;-82
2023/01/26 13:26:21;;;;;;;13.45;3.30;;;;;;;;;;5016463;28;20448;-82
2023/01/26 13:28:48;;;;;;;16.85;3.53;;;;;;;;;;4990235;28;20061;-82
2023/01/26 13:31:28;;;;;;;14.13;4.20;;;;;;;;;;4991945;28;20132;-82
2023/01/26 13:33:55;;;;;;;15.98;4.20;;;;;;;;;;4991220;28;20042;-82
2023/01/26 13:36:22;;;;;;;14.93;3.67;;;;;;;;;;5019518;28;20053;-81
2023/01/26 13:38:59;;;;;;;13.68;3.97;;;;;;;;;;4993702;28;20530;-82
2023/01/26 13:41:25;;;;;;;12.63;3.22;;;;;;;;;;4991834;28;20050;-82
2023/01/26 13:43:57;;;;;;;13.23;3.20;;;;;;;;;;4988374;28;20189;-82
2023/01/26 13:46:41;;;;;;;16.02;2.95;;;;;;;;;;4994116;28;20046;-82
2023/01/26 13:49:22;;;;;;;8.70;3.00;;;;;;;;;;4988162;28;20188;-82
2023/01/26 13:51:49;;;;;;;9.52;2.97;;;;;;;;;;5015935;28;20085;-82
2023/01/26 13:54:16;;;;;;;13.30;3.10;;;;;;;;;;5005449;28;20100;-82
2023/01/26 13:56:43;;;;;;;15.60;3.38;;;;;;;;;;4992535;28;20074;-82
2023/01/26 13:59:14;;;;;;;10.00;3.17;;;;;;;;;;4989889;28;20047;-82
2023/01/26 14:01:48;;;;;;;13.50;3.30;;;;;;;;;;4994997;28;20052;-82
2023/01/26 14:04:15;;;;;;;14.23;3.28;;;;;;;;;;4986541;28;20050;-81
2023/01/26 14:06:43;;;;;;;13.50;3.08;;;;;;;;;;5020169;28;20043;-82
2023/01/26 14:09:12;;;;;;;15.43;3.60;;;;;;;;;;5001278;28;20042;-81
2023/01/26 14:11:38;;;;;;;12.13;3.03;;;;;;;;;;4988478;28;20509;-82
2023/01/26 14:14:23;;;;;;;13.00;3.25;;;;;;;;;;4992535;28;20050;-82
2023/01/26 14:16:49;;;;;;;15.07;3.33;;;;;;;;;;5015630;28;20065;-82
2023/01/26 14:19:17;;;;;;;18.40;4.03;;;;;;;;;;4986601;28;20043;-80
2023/01/26 14:21:47;;;;;;;19.70;4.88;;;;;;;;;;5016866;28;20405;-80
2023/01/26 14:24:13;;;;;;;13.80;3.97;;;;;;;;;;4987921;28;20105;-80
2023/01/26 14:26:40;;;;;;;18.33;3.55;;;;;;;;;;5021640;28;20049;-80
2023/01/26 14:29:10;;;;;;;14.07;3.42;;;;;;;;;;4990154;28;20051;-82
2023/01/26 14:31:36;;;;;;;17.10;3.80;;;;;;;;;;4989559;28;20117;-83
2023/01/26 14:34:07;;;;;;;18.48;4.03;;;;;;;;;;4990522;28;20053;-82
2023/01/26 14:36:38;;;;;;;11.68;3.88;;;;;;;;;;5015136;28;20050;-80
2023/01/26 14:39:10;;;;;;;16.13;4.05;;;;;;;;;;4996674;28;20050;-82
2023/01/26 14:41:36;;;;;;;17.33;3.88;;;;;;;;;;4986858;28;20043;-82
2023/01/26 14:44:06;;;;;;;16.30;4.45;;;;;;;;;;4990920;28;20093;-81
2023/01/26 14:46:40;;;;;;;15.60;3.78;;;;;;;;;;4992104;28;20387;-78
2023/01/26 14:49:15;;;;;;;15.98;4.15;;;;;;;;;;5019868;28;20045;-79
2023/01/26 14:51:43;;;;;;;15.50;3.65;;;;;;;;;;4995330;28;20046;-79
2023/01/26 14:54:18;;;;;;;17.30;3.15;;;;;;;;;;4990316;28;20136;-78
2023/01/26 14:56:46;;;;;;;15.77;3.75;;;;;;;;;;4985400;28;20053;-77
2023/01/26 14:59:21;;;;;;;12.65;3.15;;;;;;;;;;4994353;28;20056;-77
2023/01/26 15:01:48;;;;;;;13.82;3.75;;;;;;;;;;5019104;28;20104;-79
2023/01/26 15:04:23;;;;;;;20.15;4.78;;;;;;;;;;4995990;28;20041;-79
2023/01/26 15:06:49;;;;;;;14.90;3.78;;;;;;;;;;4989290;28;20050;-80
2023/01/26 15:09:24;;;;;;;16.48;3.80;;;;;;;;;;4980259;28;20046;-80
2023/01/26 15:14:45;;;;;;;11.23;3.53;;;;;;;;;;5006359;28;20050;-79
2023/01/26 15:17:29;;;;;;;11.27;2.88;;;;;;;;;;4988680;28;20046;-80
2023/01/26 15:19:56;;;;;;;12.75;2.85;;;;;;;;;;4983095;28;20038;-80
2023/01/26 15:22:23;;;;;;;11.25;3.35;;;;;;;;;;4986189;28;20085;-81
2023/01/26 15:25:03;;;;;;;13.05;3.58;;;;;;;;;;4976585;28;20139;-80
2023/01/26 15:27:30;;;;;;;16.17;3.60;;;;;;;;;;4983242;28;20591;-79